sensor_id;sensor_type;location;lat;lon;timestamp;P1;durP1;ratioP1;P2;durP2;ratioP2
26201;SDS011;13944;28.562;77.188;2022-11-20T00:00:31;326.50;;;217.80;;
26201;SDS011;13944;28.562;77.188;2022-11-20T00:02:57;321.47;;;221.97;;
26201;SDS011;13944;28.562;77.188;2022-11-20T00:05:24;317.53;;;224.53;;
26201;SDS011;13944;28.562;77.188;2022-11-20T00:07:51;308.30;;;221.80;;
26201;SDS011;13944;28.562;77.188;2022-11-20T00:10:17;330.43;;;224.00;;
26201;SDS011;13944;28.562;77.188;2022-11-20T00:12:44;324.53;;;225.17;;
26201;SDS011;13944;28.562;77.188;2022-11-20T00:15:10;309.10;;;221.53;;
26201;SDS011;13944;28.562;77.188;2022-11-20T00:17:37;316.50;;;221.00;;
26201;SDS011;13944;28.562;77.188;2022-11-20T00:20:03;308.30;;;218.40;;
26201;SDS011;13944;28.562;77.188;2022-11-20T00:22:30;316.70;;;219.90;;
26201;SDS011;13944;28.562;77.188;2022-11-20T00:24:56;300.20;;;220.67;;
26201;SDS011;13944;28.562;77.188;2022-11-20T00:27:23;309.23;;;218.40;;
26201;SDS011;13944;28.562;77.188;2022-11-20T00:29:50;302.20;;;216.83;;
26201;SDS011;13944;28.562;77.188;2022-11-20T00:32:16;316.33;;;220.23;;
26201;SDS011;13944;28.562;77.188;2022-11-20T00:34:43;317.60;;;220.77;;
26201;SDS011;13944;28.562;77.188;2022-11-20T00:37:09;311.90;;;222.47;;
26201;SDS011;13944;28.562;77.188;2022-11-20T00:39:36;322.83;;;223.13;;
26201;SDS011;13944;28.562;77.188;2022-11-20T00:42:02;307.67;;;221.17;;
26201;SDS011;13944;28.562;77.188;2022-11-20T00:44:29;322.27;;;218.07;;
26201;SDS011;13944;28.562;77.188;2022-11-20T00:46:55;315.10;;;223.57;;
26201;SDS011;13944;28.562;77.188;2022-11-20T00:49:22;313.07;;;218.73;;
26201;SDS011;13944;28.562;77.188;2022-11-20T00:51:48;303.43;;;214.03;;
26201;SDS011;13944;28.562;77.188;2022-11-20T00:54:15;309.97;;;223.77;;
26201;SDS011;13944;28.562;77.188;2022-11-20T00:56:41;322.37;;;227.23;;
26201;SDS011;13944;28.562;77.188;2022-11-20T00:59:08;316.50;;;223.33;;
26201;SDS011;13944;28.562;77.188;2022-11-20T01:01:36;314.27;;;221.47;;
26201;SDS011;13944;28.562;77.188;2022-11-20T01:04:03;319.50;;;226.47;;
26201;SDS011;13944;28.562;77.188;2022-11-20T01:06:33;514.10;;;237.40;;
26201;SDS011;13944;28.562;77.188;2022-11-20T01:09:09;397.23;;;228.77;;
26201;SDS011;13944;28.562;77.188;2022-11-20T01:11:37;337.97;;;227.33;;
26201;SDS011;13944;28.562;77.188;2022-11-20T01:14:06;317.53;;;220.33;;
26201;SDS011;13944;28.562;77.188;2022-11-20T01:16:38;313.53;;;226.43;;
26201;SDS011;13944;28.562;77.188;2022-11-20T01:19:05;315.00;;;223.33;;
26201;SDS011;13944;28.562;77.188;2022-11-20T01:21:33;332.83;;;229.03;;
26201;SDS011;13944;28.562;77.188;2022-11-20T01:24:00;324.50;;;228.73;;
26201;SDS011;13944;28.562;77.188;2022-11-20T01:26:31;327.83;;;228.30;;
26201;SDS011;13944;28.562;77.188;2022-11-20T01:28:58;326.43;;;231.50;;
26201;SDS011;13944;28.562;77.188;2022-11-20T01:31:32;321.50;;;234.43;;
26201;SDS011;13944;28.562;77.188;2022-11-20T01:34:03;319.27;;;231.07;;
26201;SDS011;13944;28.562;77.188;2022-11-20T01:36:31;313.67;;;230.70;;
26201;SDS011;13944;28.562;77.188;2022-11-20T01:38:58;326.20;;;231.00;;
26201;SDS011;13944;28.562;77.188;2022-11-20T01:41:26;330.53;;;233.87;;
26201;SDS011;13944;28.562;77.188;2022-11-20T01:44:12;333.13;;;237.30;;
26201;SDS011;13944;28.562;77.188;2022-11-20T01:46:56;328.37;;;237.97;;
26201;SDS011;13944;28.562;77.188;2022-11-20T01:49:30;326.43;;;235.00;;
26201;SDS011;13944;28.562;77.188;2022-11-20T01:52:00;333.57;;;231.03;;
26201;SDS011;13944;28.562;77.188;2022-11-20T01:54:33;332.97;;;238.60;;
26201;SDS011;13944;28.562;77.188;2022-11-20T01:57:02;316.67;;;229.33;;
26201;SDS011;13944;28.562;77.188;2022-11-20T01:59:30;335.13;;;235.23;;
26201;SDS011;13944;28.562;77.188;2022-11-20T02:01:56;318.33;;;234.30;;
26201;SDS011;13944;28.562;77.188;2022-11-20T02:04:23;333.80;;;235.30;;
26201;SDS011;13944;28.562;77.188;2022-11-20T02:06:59;317.47;;;232.00;;
26201;SDS011;13944;28.562;77.188;2022-11-20T02:09:26;324.63;;;231.37;;
26201;SDS011;13944;28.562;77.188;2022-11-20T02:11:53;322.50;;;230.00;;
26201;SDS011;13944;28.562;77.188;2022-11-20T02:14:20;323.73;;;223.33;;
26201;SDS011;13944;28.562;77.188;2022-11-20T02:16:48;326.17;;;227.03;;
26201;SDS011;13944;28.562;77.188;2022-11-20T02:19:19;313.00;;;227.17;;
26201;SDS011;13944;28.562;77.188;2022-11-20T02:21:56;326.80;;;225.57;;
26201;SDS011;13944;28.562;77.188;2022-11-20T02:24:28;322.17;;;226.03;;
26201;SDS011;13944;28.562;77.188;2022-11-20T02:27:14;319.10;;;226.63;;
26201;SDS011;13944;28.562;77.188;2022-11-20T02:29:48;307.53;;;220.03;;
26201;SDS011;13944;28.562;77.188;2022-11-20T02:32:20;306.13;;;217.83;;
26201;SDS011;13944;28.562;77.188;2022-11-20T02:34:47;309.13;;;215.77;;
26201;SDS011;13944;28.562;77.188;2022-11-20T02:37:13;312.80;;;220.23;;
26201;SDS011;13944;28.562;77.188;2022-11-20T02:39:40;311.57;;;215.10;;
26201;SDS011;13944;28.562;77.188;2022-11-20T02:42:08;293.13;;;207.53;;
26201;SDS011;13944;28.562;77.188;2022-11-20T02:44:34;299.97;;;208.77;;
26201;SDS011;13944;28.562;77.188;2022-11-20T02:47:01;287.70;;;202.77;;
26201;SDS011;13944;28.562;77.188;2022-11-20T02:49:27;295.57;;;203.73;;
26201;SDS011;13944;28.562;77.188;2022-11-20T02:51:54;292.60;;;198.83;;
26201;SDS011;13944;28.562;77.188;2022-11-20T02:54:20;301.03;;;195.97;;
26201;SDS011;13944;28.562;77.188;2022-11-20T02:56:47;290.10;;;192.40;;
26201;SDS011;13944;28.562;77.188;2022-11-20T02:59:13;265.37;;;181.77;;
26201;SDS011;13944;28.562;77.188;2022-11-20T03:01:40;266.60;;;183.23;;
26201;SDS011;13944;28.562;77.188;2022-11-20T03:04:07;262.70;;;184.53;;
26201;SDS011;13944;28.562;77.188;2022-11-20T03:06:33;277.00;;;180.07;;
26201;SDS011;13944;28.562;77.188;2022-11-20T03:09:00;262.53;;;179.00;;
26201;SDS011;13944;28.562;77.188;2022-11-20T03:11:27;256.33;;;172.23;;
26201;SDS011;13944;28.562;77.188;2022-11-20T03:13:53;270.10;;;178.97;;
26201;SDS011;13944;28.562;77.188;2022-11-20T03:16:20;254.97;;;173.57;;
26201;SDS011;13944;28.562;77.188;2022-11-20T03:18:47;258.40;;;173.53;;
26201;SDS011;13944;28.562;77.188;2022-11-20T03:21:14;258.70;;;171.03;;
26201;SDS011;13944;28.562;77.188;2022-11-20T03:23:41;250.00;;;170.63;;
26201;SDS011;13944;28.562;77.188;2022-11-20T03:28:34;266.30;;;171.17;;
26201;SDS011;13944;28.562;77.188;2022-11-20T03:31:05;250.23;;;169.10;;
26201;SDS011;13944;28.562;77.188;2022-11-20T03:33:32;254.53;;;168.90;;
26201;SDS011;13944;28.562;77.188;2022-11-20T03:36:05;251.83;;;166.90;;
26201;SDS011;13944;28.562;77.188;2022-11-20T03:38:33;278.70;;;172.30;;
26201;SDS011;13944;28.562;77.188;2022-11-20T03:41:06;251.37;;;169.63;;
26201;SDS011;13944;28.562;77.188;2022-11-20T03:43:33;259.20;;;173.67;;
26201;SDS011;13944;28.562;77.188;2022-11-20T03:46:00;254.07;;;171.87;;
26201;SDS011;13944;28.562;77.188;2022-11-20T03:48:27;270.97;;;174.17;;
26201;SDS011;13944;28.562;77.188;2022-11-20T03:51:39;251.43;;;170.63;;
26201;SDS011;13944;28.562;77.188;2022-11-20T03:53:41;263.10;;;175.77;;
26201;SDS011;13944;28.562;77.188;2022-11-20T03:56:08;252.97;;;176.47;;
26201;SDS011;13944;28.562;77.188;2022-11-20T03:58:35;262.40;;;175.57;;
26201;SDS011;13944;28.562;77.188;2022-11-20T04:01:06;264.10;;;176.17;;
26201;SDS011;13944;28.562;77.188;2022-11-20T04:03:33;258.67;;;169.13;;
26201;SDS011;13944;28.562;77.188;2022-11-20T04:06:04;253.63;;;173.40;;
26201;SDS011;13944;28.562;77.188;2022-11-20T04:08:31;257.37;;;167.57;;
26201;SDS011;13944;28.562;77.188;2022-11-20T04:11:07;260.23;;;175.20;;
26201;SDS011;13944;28.562;77.188;2022-11-20T04:13:34;263.63;;;175.77;;
26201;SDS011;13944;28.562;77.188;2022-11-20T04:16:00;257.63;;;170.37;;
26201;SDS011;13944;28.562;77.188;2022-11-20T04:18:27;248.57;;;161.70;;
26201;SDS011;13944;28.562;77.188;2022-11-20T04:20:54;245.17;;;161.67;;
26201;SDS011;13944;28.562;77.188;2022-11-20T04:23:22;242.10;;;160.07;;
26201;SDS011;13944;28.562;77.188;2022-11-20T04:25:49;243.03;;;159.63;;
26201;SDS011;13944;28.562;77.188;2022-11-20T04:28:15;237.67;;;160.67;;
26201;SDS011;13944;28.562;77.188;2022-11-20T04:30:42;235.33;;;157.27;;
26201;SDS011;13944;28.562;77.188;2022-11-20T04:33:09;228.13;;;154.07;;
26201;SDS011;13944;28.562;77.188;2022-11-20T04:35:36;242.00;;;156.37;;
26201;SDS011;13944;28.562;77.188;2022-11-20T04:38:03;229.53;;;151.60;;
26201;SDS011;13944;28.562;77.188;2022-11-20T04:40:30;239.63;;;153.27;;
26201;SDS011;13944;28.562;77.188;2022-11-20T04:42:56;214.70;;;147.27;;
26201;SDS011;13944;28.562;77.188;2022-11-20T04:45:23;219.43;;;146.80;;
26201;SDS011;13944;28.562;77.188;2022-11-20T04:47:49;225.30;;;147.90;;
26201;SDS011;13944;28.562;77.188;2022-11-20T04:50:16;230.63;;;150.93;;
26201;SDS011;13944;28.562;77.188;2022-11-20T04:52:42;223.03;;;147.27;;
26201;SDS011;13944;28.562;77.188;2022-11-20T04:55:09;203.20;;;142.00;;
26201;SDS011;13944;28.562;77.188;2022-11-20T04:57:36;210.03;;;142.83;;
26201;SDS011;13944;28.562;77.188;2022-11-20T05:00:02;220.37;;;141.67;;
26201;SDS011;13944;28.562;77.188;2022-11-20T05:02:30;215.97;;;142.63;;
26201;SDS011;13944;28.562;77.188;2022-11-20T05:04:57;215.73;;;143.00;;
26201;SDS011;13944;28.562;77.188;2022-11-20T05:07:23;209.03;;;141.30;;
26201;SDS011;13944;28.562;77.188;2022-11-20T05:09:50;212.37;;;139.40;;
26201;SDS011;13944;28.562;77.188;2022-11-20T05:12:16;207.13;;;136.63;;
26201;SDS011;13944;28.562;77.188;2022-11-20T05:14:43;207.10;;;136.50;;
26201;SDS011;13944;28.562;77.188;2022-11-20T05:17:10;209.43;;;139.37;;
26201;SDS011;13944;28.562;77.188;2022-11-20T05:19:37;189.60;;;134.13;;
26201;SDS011;13944;28.562;77.188;2022-11-20T05:22:04;202.67;;;134.77;;
26201;SDS011;13944;28.562;77.188;2022-11-20T05:24:30;196.63;;;134.00;;
26201;SDS011;13944;28.562;77.188;2022-11-20T05:26:57;196.20;;;134.60;;
26201;SDS011;13944;28.562;77.188;2022-11-20T05:29:23;210.80;;;141.20;;
26201;SDS011;13944;28.562;77.188;2022-11-20T05:31:53;204.60;;;136.57;;
26201;SDS011;13944;28.562;77.188;2022-11-20T05:34:20;203.70;;;132.93;;
26201;SDS011;13944;28.562;77.188;2022-11-20T05:36:46;207.80;;;135.73;;
26201;SDS011;13944;28.562;77.188;2022-11-20T05:39:13;191.13;;;132.37;;
26201;SDS011;13944;28.562;77.188;2022-11-20T05:41:39;198.57;;;136.10;;
26201;SDS011;13944;28.562;77.188;2022-11-20T05:44:06;199.90;;;131.67;;
26201;SDS011;13944;28.562;77.188;2022-11-20T05:46:32;195.70;;;128.00;;
26201;SDS011;13944;28.562;77.188;2022-11-20T05:48:59;181.93;;;124.83;;
26201;SDS011;13944;28.562;77.188;2022-11-20T05:51:25;183.43;;;124.80;;
26201;SDS011;13944;28.562;77.188;2022-11-20T05:53:52;188.67;;;123.03;;
26201;SDS011;13944;28.562;77.188;2022-11-20T05:56:20;168.93;;;116.20;;
26201;SDS011;13944;28.562;77.188;2022-11-20T05:58:47;175.83;;;116.33;;
26201;SDS011;13944;28.562;77.188;2022-11-20T06:01:18;175.07;;;114.40;;
26201;SDS011;13944;28.562;77.188;2022-11-20T06:03:45;165.50;;;109.80;;
26201;SDS011;13944;28.562;77.188;2022-11-20T06:06:13;155.73;;;105.43;;
26201;SDS011;13944;28.562;77.188;2022-11-20T06:08:40;155.73;;;105.27;;
26201;SDS011;13944;28.562;77.188;2022-11-20T06:11:09;156.03;;;102.73;;
26201;SDS011;13944;28.562;77.188;2022-11-20T06:13:36;158.00;;;106.47;;
26201;SDS011;13944;28.562;77.188;2022-11-20T06:16:02;168.53;;;110.27;;
26201;SDS011;13944;28.562;77.188;2022-11-20T06:18:29;168.03;;;108.37;;
26201;SDS011;13944;28.562;77.188;2022-11-20T06:21:00;160.50;;;110.43;;
26201;SDS011;13944;28.562;77.188;2022-11-20T06:23:27;168.87;;;105.73;;
26201;SDS011;13944;28.562;77.188;2022-11-20T06:25:54;163.97;;;107.07;;
26201;SDS011;13944;28.562;77.188;2022-11-20T06:28:23;157.63;;;106.33;;
26201;SDS011;13944;28.562;77.188;2022-11-20T06:30:50;163.87;;;106.57;;
26201;SDS011;13944;28.562;77.188;2022-11-20T06:33:16;166.03;;;108.50;;
26201;SDS011;13944;28.562;77.188;2022-11-20T06:35:43;155.07;;;109.33;;
26201;SDS011;13944;28.562;77.188;2022-11-20T06:38:10;189.43;;;113.43;;
26201;SDS011;13944;28.562;77.188;2022-11-20T06:40:39;161.17;;;102.47;;
26201;SDS011;13944;28.562;77.188;2022-11-20T06:43:05;138.87;;;94.93;;
26201;SDS011;13944;28.562;77.188;2022-11-20T06:45:32;139.47;;;92.93;;
26201;SDS011;13944;28.562;77.188;2022-11-20T06:47:58;148.80;;;97.37;;
26201;SDS011;13944;28.562;77.188;2022-11-20T06:50:25;135.00;;;94.83;;
26201;SDS011;13944;28.562;77.188;2022-11-20T06:52:51;147.77;;;93.87;;
26201;SDS011;13944;28.562;77.188;2022-11-20T06:55:18;130.63;;;89.70;;
26201;SDS011;13944;28.562;77.188;2022-11-20T06:57:45;129.93;;;88.13;;
26201;SDS011;13944;28.562;77.188;2022-11-20T07:00:11;132.93;;;89.50;;
26201;SDS011;13944;28.562;77.188;2022-11-20T07:02:38;133.20;;;88.47;;
26201;SDS011;13944;28.562;77.188;2022-11-20T07:05:05;139.07;;;88.20;;
26201;SDS011;13944;28.562;77.188;2022-11-20T07:07:31;130.43;;;88.50;;
26201;SDS011;13944;28.562;77.188;2022-11-20T07:09:58;130.77;;;88.87;;
26201;SDS011;13944;28.562;77.188;2022-11-20T07:12:24;133.20;;;90.33;;
26201;SDS011;13944;28.562;77.188;2022-11-20T07:14:51;141.63;;;95.57;;
26201;SDS011;13944;28.562;77.188;2022-11-20T07:17:18;135.63;;;95.50;;
26201;SDS011;13944;28.562;77.188;2022-11-20T07:19:44;142.07;;;94.40;;
26201;SDS011;13944;28.562;77.188;2022-11-20T07:22:11;141.53;;;95.07;;
26201;SDS011;13944;28.562;77.188;2022-11-20T07:24:38;139.77;;;94.73;;
26201;SDS011;13944;28.562;77.188;2022-11-20T07:27:05;148.47;;;96.47;;
26201;SDS011;13944;28.562;77.188;2022-11-20T07:29:31;143.17;;;96.17;;
26201;SDS011;13944;28.562;77.188;2022-11-20T07:31:58;140.23;;;93.90;;
26201;SDS011;13944;28.562;77.188;2022-11-20T07:34:24;133.77;;;91.00;;
26201;SDS011;13944;28.562;77.188;2022-11-20T07:36:51;143.07;;;96.40;;
26201;SDS011;13944;28.562;77.188;2022-11-20T07:39:17;149.33;;;98.30;;
26201;SDS011;13944;28.562;77.188;2022-11-20T07:41:44;146.53;;;99.13;;
26201;SDS011;13944;28.562;77.188;2022-11-20T07:44:10;165.43;;;111.20;;
26201;SDS011;13944;28.562;77.188;2022-11-20T07:46:37;158.00;;;107.87;;
26201;SDS011;13944;28.562;77.188;2022-11-20T07:49:04;161.83;;;111.07;;
26201;SDS011;13944;28.562;77.188;2022-11-20T07:51:30;162.43;;;112.03;;
26201;SDS011;13944;28.562;77.188;2022-11-20T07:53:57;163.40;;;111.87;;
26201;SDS011;13944;28.562;77.188;2022-11-20T07:56:23;163.53;;;112.30;;
26201;SDS011;13944;28.562;77.188;2022-11-20T07:58:50;146.13;;;94.33;;
26201;SDS011;13944;28.562;77.188;2022-11-20T08:01:16;131.03;;;84.90;;
26201;SDS011;13944;28.562;77.188;2022-11-20T08:03:43;117.53;;;83.17;;
26201;SDS011;13944;28.562;77.188;2022-11-20T08:06:09;116.93;;;80.50;;
26201;SDS011;13944;28.562;77.188;2022-11-20T08:08:36;114.83;;;79.00;;
26201;SDS011;13944;28.562;77.188;2022-11-20T08:11:04;115.87;;;77.83;;
26201;SDS011;13944;28.562;77.188;2022-11-20T08:13:49;104.43;;;72.73;;
26201;SDS011;13944;28.562;77.188;2022-11-20T08:16:35;117.73;;;74.23;;
26201;SDS011;13944;28.562;77.188;2022-11-20T08:19:01;109.20;;;70.60;;
26201;SDS011;13944;28.562;77.188;2022-11-20T08:21:28;113.50;;;73.70;;
26201;SDS011;13944;28.562;77.188;2022-11-20T08:23:54;114.47;;;74.33;;
26201;SDS011;13944;28.562;77.188;2022-11-20T08:26:21;110.77;;;76.43;;
26201;SDS011;13944;28.562;77.188;2022-11-20T08:28:48;111.33;;;75.13;;
26201;SDS011;13944;28.562;77.188;2022-11-20T08:31:15;116.83;;;76.10;;
26201;SDS011;13944;28.562;77.188;2022-11-20T08:33:41;116.10;;;73.90;;
26201;SDS011;13944;28.562;77.188;2022-11-20T08:36:08;110.63;;;73.80;;
26201;SDS011;13944;28.562;77.188;2022-11-20T08:38:34;106.73;;;73.80;;
26201;SDS011;13944;28.562;77.188;2022-11-20T08:41:02;111.47;;;73.13;;
26201;SDS011;13944;28.562;77.188;2022-11-20T08:43:47;106.33;;;73.37;;
26201;SDS011;13944;28.562;77.188;2022-11-20T08:46:14;102.77;;;73.17;;
26201;SDS011;13944;28.562;77.188;2022-11-20T08:48:40;107.30;;;73.90;;
26201;SDS011;13944;28.562;77.188;2022-11-20T08:51:07;116.43;;;76.30;;
26201;SDS011;13944;28.562;77.188;2022-11-20T08:53:34;115.33;;;76.63;;
26201;SDS011;13944;28.562;77.188;2022-11-20T08:56:00;108.27;;;74.70;;
26201;SDS011;13944;28.562;77.188;2022-11-20T08:58:27;111.03;;;75.20;;
26201;SDS011;13944;28.562;77.188;2022-11-20T09:00:53;117.53;;;78.47;;
26201;SDS011;13944;28.562;77.188;2022-11-20T09:03:20;107.00;;;75.87;;
26201;SDS011;13944;28.562;77.188;2022-11-20T09:05:47;115.27;;;76.93;;
26201;SDS011;13944;28.562;77.188;2022-11-20T09:08:13;116.97;;;81.20;;
26201;SDS011;13944;28.562;77.188;2022-11-20T09:10:40;109.93;;;76.63;;
26201;SDS011;13944;28.562;77.188;2022-11-20T09:13:06;106.87;;;74.90;;
26201;SDS011;13944;28.562;77.188;2022-11-20T09:15:33;120.07;;;77.93;;
26201;SDS011;13944;28.562;77.188;2022-11-20T09:18:01;114.13;;;79.13;;
26201;SDS011;13944;28.562;77.188;2022-11-20T09:20:28;108.00;;;77.97;;
26201;SDS011;13944;28.562;77.188;2022-11-20T09:22:55;108.93;;;77.77;;
26201;SDS011;13944;28.562;77.188;2022-11-20T09:25:22;110.23;;;75.10;;
26201;SDS011;13944;28.562;77.188;2022-11-20T09:27:54;108.67;;;74.07;;
26201;SDS011;13944;28.562;77.188;2022-11-20T09:30:20;109.80;;;77.63;;
26201;SDS011;13944;28.562;77.188;2022-11-20T09:32:47;106.97;;;76.87;;
26201;SDS011;13944;28.562;77.188;2022-11-20T09:35:14;102.83;;;72.60;;
26201;SDS011;13944;28.562;77.188;2022-11-20T09:37:40;104.03;;;72.50;;
26201;SDS011;13944;28.562;77.188;2022-11-20T09:40:09;104.87;;;72.40;;
26201;SDS011;13944;28.562;77.188;2022-11-20T09:50:36;99.17;;;66.77;;
26201;SDS011;13944;28.562;77.188;2022-11-20T09:55:48;93.60;;;65.30;;
26201;SDS011;13944;28.562;77.188;2022-11-20T09:58:22;98.10;;;66.43;;
26201;SDS011;13944;28.562;77.188;2022-11-20T10:00:52;91.23;;;64.40;;
26201;SDS011;13944;28.562;77.188;2022-11-20T10:03:26;103.30;;;65.70;;
26201;SDS011;13944;28.562;77.188;2022-11-20T10:05:58;88.87;;;63.47;;
26201;SDS011;13944;28.562;77.188;2022-11-20T10:08:29;99.27;;;65.90;;
26201;SDS011;13944;28.562;77.188;2022-11-20T10:18:51;104.20;;;64.40;;
26201;SDS011;13944;28.562;77.188;2022-11-20T10:26:54;94.77;;;64.37;;
26201;SDS011;13944;28.562;77.188;2022-11-20T10:29:35;92.47;;;64.03;;
26201;SDS011;13944;28.562;77.188;2022-11-20T10:32:04;95.00;;;64.23;;
26201;SDS011;13944;28.562;77.188;2022-11-20T10:37:10;98.57;;;64.43;;
26201;SDS011;13944;28.562;77.188;2022-11-20T10:39:40;95.43;;;63.93;;
26201;SDS011;13944;28.562;77.188;2022-11-20T10:42:09;96.17;;;65.07;;
26201;SDS011;13944;28.562;77.188;2022-11-20T10:44:37;91.83;;;63.57;;
26201;SDS011;13944;28.562;77.188;2022-11-20T10:47:24;95.97;;;64.67;;
26201;SDS011;13944;28.562;77.188;2022-11-20T10:49:52;100.23;;;65.43;;
26201;SDS011;13944;28.562;77.188;2022-11-20T10:57:57;95.37;;;62.83;;
26201;SDS011;13944;28.562;77.188;2022-11-20T11:00:30;97.10;;;63.07;;
26201;SDS011;13944;28.562;77.188;2022-11-20T11:02:56;104.40;;;68.67;;
26201;SDS011;13944;28.562;77.188;2022-11-20T11:07:55;95.80;;;66.07;;
26201;SDS011;13944;28.562;77.188;2022-11-20T11:12:55;103.03;;;64.73;;
26201;SDS011;13944;28.562;77.188;2022-11-20T11:15:38;93.17;;;63.53;;
26201;SDS011;13944;28.562;77.188;2022-11-20T11:18:04;100.23;;;64.57;;
26201;SDS011;13944;28.562;77.188;2022-11-20T11:20:31;103.47;;;67.70;;
26201;SDS011;13944;28.562;77.188;2022-11-20T11:22:58;107.13;;;69.13;;
26201;SDS011;13944;28.562;77.188;2022-11-20T11:25:35;111.77;;;70.87;;
26201;SDS011;13944;28.562;77.188;2022-11-20T11:28:03;125.13;;;70.20;;
26201;SDS011;13944;28.562;77.188;2022-11-20T11:30:30;120.80;;;70.33;;
26201;SDS011;13944;28.562;77.188;2022-11-20T11:33:09;113.80;;;68.90;;
26201;SDS011;13944;28.562;77.188;2022-11-20T11:35:39;126.87;;;71.60;;
26201;SDS011;13944;28.562;77.188;2022-11-20T11:38:14;116.10;;;68.37;;
26201;SDS011;13944;28.562;77.188;2022-11-20T11:40:42;122.77;;;71.03;;
26201;SDS011;13944;28.562;77.188;2022-11-20T11:43:17;121.53;;;70.07;;
26201;SDS011;13944;28.562;77.188;2022-11-20T11:46:02;139.10;;;74.27;;
26201;SDS011;13944;28.562;77.188;2022-11-20T11:48:29;130.03;;;78.47;;
26201;SDS011;13944;28.562;77.188;2022-11-20T11:50:56;136.10;;;80.27;;
26201;SDS011;13944;28.562;77.188;2022-11-20T11:53:23;134.80;;;80.77;;
26201;SDS011;13944;28.562;77.188;2022-11-20T11:58:28;122.60;;;78.70;;
26201;SDS011;13944;28.562;77.188;2022-11-20T12:03:35;134.43;;;77.70;;
26201;SDS011;13944;28.562;77.188;2022-11-20T12:06:20;145.03;;;84.40;;
26201;SDS011;13944;28.562;77.188;2022-11-20T12:08:51;138.00;;;83.70;;
26201;SDS011;13944;28.562;77.188;2022-11-20T12:11:23;151.67;;;86.03;;
26201;SDS011;13944;28.562;77.188;2022-11-20T12:13:53;138.60;;;84.00;;
26201;SDS011;13944;28.562;77.188;2022-11-20T12:16:20;146.73;;;84.43;;
26201;SDS011;13944;28.562;77.188;2022-11-20T12:18:51;135.30;;;85.07;;
26201;SDS011;13944;28.562;77.188;2022-11-20T12:21:18;159.67;;;85.53;;
26201;SDS011;13944;28.562;77.188;2022-11-20T12:26:38;145.00;;;86.23;;
26201;SDS011;13944;28.562;77.188;2022-11-20T12:29:06;141.53;;;84.00;;
26201;SDS011;13944;28.562;77.188;2022-11-20T12:39:36;146.47;;;85.73;;
26201;SDS011;13944;28.562;77.188;2022-11-20T12:47:47;153.80;;;92.00;;
26201;SDS011;13944;28.562;77.188;2022-11-20T12:57:55;168.40;;;100.10;;
26201;SDS011;13944;28.562;77.188;2022-11-20T13:00:23;153.97;;;99.03;;
26201;SDS011;13944;28.562;77.188;2022-11-20T13:08:10;160.30;;;98.60;;
26201;SDS011;13944;28.562;77.188;2022-11-20T13:18:11;184.33;;;113.53;;
26201;SDS011;13944;28.562;77.188;2022-11-20T13:20:41;169.97;;;112.10;;
26201;SDS011;13944;28.562;77.188;2022-11-20T13:23:08;194.13;;;119.43;;
26201;SDS011;13944;28.562;77.188;2022-11-20T13:25:39;203.23;;;122.43;;
26201;SDS011;13944;28.562;77.188;2022-11-20T13:30:35;193.10;;;126.63;;
26201;SDS011;13944;28.562;77.188;2022-11-20T13:33:21;192.57;;;124.87;;
26201;SDS011;13944;28.562;77.188;2022-11-20T13:35:59;220.77;;;127.97;;
26201;SDS011;13944;28.562;77.188;2022-11-20T13:38:26;200.37;;;127.47;;
26201;SDS011;13944;28.562;77.188;2022-11-20T13:41:02;213.50;;;130.90;;
26201;SDS011;13944;28.562;77.188;2022-11-20T13:43:48;218.83;;;131.50;;
26201;SDS011;13944;28.562;77.188;2022-11-20T13:46:14;204.23;;;131.00;;
26201;SDS011;13944;28.562;77.188;2022-11-20T13:48:42;202.10;;;131.20;;
26201;SDS011;13944;28.562;77.188;2022-11-20T13:56:36;211.97;;;131.47;;
26201;SDS011;13944;28.562;77.188;2022-11-20T13:59:29;208.63;;;131.90;;
26201;SDS011;13944;28.562;77.188;2022-11-20T14:01:52;220.27;;;129.33;;
26201;SDS011;13944;28.562;77.188;2022-11-20T14:04:26;209.10;;;130.17;;
26201;SDS011;13944;28.562;77.188;2022-11-20T14:06:53;210.57;;;128.37;;
26201;SDS011;13944;28.562;77.188;2022-11-20T14:09:30;193.53;;;123.20;;
26201;SDS011;13944;28.562;77.188;2022-11-20T14:11:57;203.97;;;126.73;;
26201;SDS011;13944;28.562;77.188;2022-11-20T14:14:25;192.97;;;124.50;;
26201;SDS011;13944;28.562;77.188;2022-11-20T14:16:52;199.30;;;127.30;;
26201;SDS011;13944;28.562;77.188;2022-11-20T14:21:46;204.03;;;128.93;;
26201;SDS011;13944;28.562;77.188;2022-11-20T14:24:13;206.90;;;129.00;;
26201;SDS011;13944;28.562;77.188;2022-11-20T14:26:45;203.23;;;129.03;;
26201;SDS011;13944;28.562;77.188;2022-11-20T14:29:22;202.63;;;126.63;;
26201;SDS011;13944;28.562;77.188;2022-11-20T14:31:53;197.37;;;124.90;;
26201;SDS011;13944;28.562;77.188;2022-11-20T14:34:22;197.63;;;127.20;;
26201;SDS011;13944;28.562;77.188;2022-11-20T14:36:50;203.80;;;128.13;;
26201;SDS011;13944;28.562;77.188;2022-11-20T14:39:22;206.20;;;129.37;;
26201;SDS011;13944;28.562;77.188;2022-11-20T14:41:52;191.33;;;125.73;;
26201;SDS011;13944;28.562;77.188;2022-11-20T14:44:23;210.33;;;129.10;;
26201;SDS011;13944;28.562;77.188;2022-11-20T14:46:51;204.23;;;128.20;;
26201;SDS011;13944;28.562;77.188;2022-11-20T14:49:18;208.33;;;128.67;;
26201;SDS011;13944;28.562;77.188;2022-11-20T14:51:45;206.03;;;129.07;;
26201;SDS011;13944;28.562;77.188;2022-11-20T14:54:19;195.53;;;129.27;;
26201;SDS011;13944;28.562;77.188;2022-11-20T14:56:54;209.47;;;130.80;;
26201;SDS011;13944;28.562;77.188;2022-11-20T14:59:28;210.00;;;132.90;;
26201;SDS011;13944;28.562;77.188;2022-11-20T15:01:56;208.97;;;130.77;;
26201;SDS011;13944;28.562;77.188;2022-11-20T15:04:23;219.13;;;131.90;;
26201;SDS011;13944;28.562;77.188;2022-11-20T15:06:50;225.60;;;138.10;;
26201;SDS011;13944;28.562;77.188;2022-11-20T15:09:17;213.07;;;137.30;;
26201;SDS011;13944;28.562;77.188;2022-11-20T15:12:02;203.10;;;135.60;;
26201;SDS011;13944;28.562;77.188;2022-11-20T15:14:30;213.33;;;138.90;;
26201;SDS011;13944;28.562;77.188;2022-11-20T15:16:59;216.23;;;139.23;;
26201;SDS011;13944;28.562;77.188;2022-11-20T15:19:26;225.17;;;142.30;;
26201;SDS011;13944;28.562;77.188;2022-11-20T15:21:53;224.13;;;142.17;;
26201;SDS011;13944;28.562;77.188;2022-11-20T15:24:19;221.53;;;144.60;;
26201;SDS011;13944;28.562;77.188;2022-11-20T15:26:46;234.93;;;145.50;;
26201;SDS011;13944;28.562;77.188;2022-11-20T15:29:14;227.60;;;146.73;;